Ashland, NC

11:55 PM EST on December 21, 2014 (GMT -0500)
Rock Creek Rd. | Change Station
CLOSE
Current Station
Personal Weather Station
Location: Creston, NC
Elevation: 3284 ft
Nearby Weather Stations

Elev 3284 ft 36.43 °N, 81.69 °W | Updated 3 seconds ago

Fog
Fog
35.6 °F
Feels Like 36 °F
N
0.2
Wind Variable Wind from SSE
Gusts 3.1 mph

Today
High -- | Low -- °F
--% Chance of Precip.
Yesterday
High -- | Low -- °F
Precip. -- in
7:34 AM 5:14 PM
New Moon, 0% visible
Pressure 30.14 in
Visibility 0.2 miles
Clouds Overcast 300 ft
Windchill 36 °F
Dew Point 35 °F
Humidity 99%
Rainfall 0.00 in
Snow Depth Not available.
UV 0.0 out of 12
Pollen .10 out of 12
Air Quality Not available.
Flu Activity Not available.
METAR KGEV 220435Z AUTO 15004KT 1/4SM -RA OVC003 01/01 A3014 RMK AO2 T00110011

More Conditions Fewer Conditions

Pressure 30.14 in
Visibility 0.2 miles
Clouds Overcast 300 ft
Windchill 36 °F
Dew Point 35 °F
Humidity 99%
Rainfall 0.00 in
Snow Depth Not available.
UV 0.0 out of 12
Pollen .10 out of 12
Air Quality Not available.
Flu Activity Not available.
METAR KGEV 220435Z AUTO 15004KT 1/4SM -RA OVC003 01/01 A3014 RMK AO2 T00110011

More Conditions Fewer Conditions

10-Day Weather Forecast

Almanac

Astronomy

Dec. 21, 2014 Rise Set
Actual Time
Civil Twilight
Nautical Twilight
Astronomical Twilight
Moon
Length of Visible Light
Length of Day
Tomorrow will be .
, % of the Moon is Illuminated

Today's Extremes

State Highs State Lows

Community

WunderPhotos

Upload Photos

1,779,540 photos uploaded!

WunderBlogs® & News

Nearby

Air Quality

  Air Quality AQ Index Pollutant
Not available.

Snow Depth

Station Depth Elevation

Earthquake Activity

City Distance Mag. Time & Date
Minimum magnitude displayed is 2.5.

Coastal Water Temperatures

Place Temperature

Nearby Weather Stations